createdAt,value
2019-01-27T00:00:13.359Z,1.80
2019-01-27T00:01:51.240Z,1.80
2019-01-27T00:03:27.457Z,1.80
2019-01-27T00:05:04.235Z,1.80
2019-01-27T00:06:41.657Z,1.80
2019-01-27T00:08:18.434Z,1.80
2019-01-27T00:09:54.673Z,1.80
2019-01-27T00:11:31.134Z,1.90
2019-01-27T00:13:07.557Z,1.90
2019-01-27T00:14:43.798Z,1.90
2019-01-27T00:16:20.361Z,1.90
2019-01-27T00:17:56.792Z,1.90
2019-01-27T00:19:33.294Z,1.80
2019-01-27T00:21:11.009Z,1.80
2019-01-27T00:22:47.573Z,1.80
2019-01-27T00:24:23.966Z,1.80
2019-01-27T00:26:00.307Z,1.80
2019-01-27T00:27:36.623Z,1.80
2019-01-27T00:29:12.889Z,1.80
2019-01-27T00:30:49.284Z,1.90
2019-01-27T00:32:25.611Z,1.90
2019-01-27T00:34:02.018Z,1.90
2019-01-27T00:35:38.477Z,1.90
2019-01-27T00:37:14.657Z,1.90
2019-01-27T00:38:51.071Z,1.90
2019-01-27T00:40:27.711Z,1.90
2019-01-27T00:42:04.012Z,1.90
2019-01-27T00:43:40.277Z,1.90
2019-01-27T00:45:17.283Z,1.90
2019-01-27T00:46:53.485Z,1.90
2019-01-27T00:48:29.636Z,1.90
2019-01-27T00:50:06.809Z,1.90
2019-01-27T00:51:43.141Z,1.80
2019-01-27T00:53:19.387Z,1.80
2019-01-27T00:54:55.568Z,1.80
2019-01-27T00:56:31.718Z,1.80
2019-01-27T00:58:08.032Z,1.70
2019-01-27T00:59:44.253Z,1.70
2019-01-27T01:01:20.594Z,1.70
2019-01-27T01:02:56.877Z,1.70
2019-01-27T01:04:33.160Z,1.70
2019-01-27T01:06:09.415Z,1.70
2019-01-27T01:07:46.237Z,1.70
2019-01-27T01:09:22.489Z,1.70
2019-01-27T01:10:58.652Z,1.80
2019-01-27T01:12:34.959Z,1.80
2019-01-27T01:14:11.161Z,1.80
2019-01-27T01:15:47.501Z,1.80
2019-01-27T01:17:23.735Z,1.80
2019-01-27T01:18:59.938Z,1.80
2019-01-27T01:20:36.193Z,1.70
2019-01-27T01:22:12.516Z,1.70
2019-01-27T01:23:48.737Z,1.70
2019-01-27T01:25:25.464Z,1.70
2019-01-27T01:27:01.706Z,1.70
2019-01-27T01:28:38.013Z,1.70
2019-01-27T01:30:16.849Z,1.70
2019-01-27T01:31:52.902Z,1.70
2019-01-27T01:33:30.672Z,1.70
2019-01-27T01:35:08.737Z,1.70
2019-01-27T01:36:44.958Z,1.70
2019-01-27T01:38:21.192Z,1.70
2019-01-27T01:39:57.420Z,1.70
2019-01-27T01:41:33.557Z,1.70
2019-01-27T01:43:09.817Z,1.70
2019-01-27T01:44:47.274Z,1.70
2019-01-27T01:46:23.676Z,1.70
2019-01-27T01:47:59.792Z,1.70
2019-01-27T01:49:37.020Z,1.70
2019-01-27T01:51:13.178Z,1.70
2019-01-27T01:52:50.358Z,1.70
2019-01-27T01:54:26.702Z,1.70
2019-01-27T01:56:02.970Z,1.70
2019-01-27T01:57:39.113Z,1.80
2019-01-27T01:59:15.264Z,1.80
2019-01-27T02:00:51.613Z,1.80
2019-01-27T02:02:27.908Z,1.80
2019-01-27T02:04:04.229Z,1.80
2019-01-27T02:05:40.692Z,1.80
2019-01-27T02:07:16.850Z,1.80
2019-01-27T02:08:53.189Z,1.70
2019-01-27T02:10:29.407Z,1.70
2019-01-27T02:12:05.625Z,1.70
2019-01-27T02:13:41.776Z,1.70
2019-01-27T02:15:46.992Z,1.70
2019-01-27T02:17:24.062Z,1.70
2019-01-27T02:19:00.469Z,1.70
2019-01-27T02:20:36.722Z,1.70
2019-01-27T02:22:13.024Z,1.60
2019-01-27T02:23:49.248Z,1.60
2019-01-27T02:25:25.393Z,1.60
2019-01-27T02:27:01.646Z,1.60
2019-01-27T02:28:37.830Z,1.50
2019-01-27T02:30:14.228Z,1.50
2019-01-27T02:31:53.316Z,1.50
2019-01-27T02:33:29.553Z,1.50
2019-01-27T02:35:06.226Z,1.50
2019-01-27T02:36:42.652Z,1.50
2019-01-27T02:38:19.089Z,1.50
2019-01-27T02:39:55.348Z,1.50
2019-01-27T02:41:31.578Z,1.50
2019-01-27T02:43:08.850Z,1.50
2019-01-27T02:44:45.418Z,1.50
2019-01-27T02:46:21.527Z,1.50
2019-01-27T02:48:01.576Z,1.50
2019-01-27T02:49:37.764Z,1.50
2019-01-27T02:51:13.925Z,1.40
2019-01-27T02:52:50.194Z,1.40
2019-01-27T02:54:26.405Z,1.40
2019-01-27T02:56:02.740Z,1.40
2019-01-27T02:57:38.952Z,1.40
2019-01-27T02:59:15.290Z,1.40
2019-01-27T03:00:51.506Z,1.40
2019-01-27T03:02:28.775Z,1.50
2019-01-27T03:04:06.232Z,1.50
2019-01-27T03:06:01.420Z,1.50
2019-01-27T03:07:39.189Z,1.50
2019-01-27T03:09:25.681Z,1.60
2019-01-27T03:11:01.949Z,1.60
2019-01-27T03:12:38.194Z,1.60
2019-01-27T03:14:14.512Z,1.60
2019-01-27T03:15:50.749Z,1.60
2019-01-27T03:17:26.977Z,1.60
2019-01-27T03:19:04.014Z,1.60
2019-01-27T03:20:40.122Z,1.60
2019-01-27T03:22:16.334Z,1.70
2019-01-27T03:23:52.721Z,1.60
2019-01-27T03:25:28.929Z,1.60
2019-01-27T03:27:05.253Z,1.60
2019-01-27T03:28:41.550Z,1.60
2019-01-27T03:30:18.685Z,1.60
2019-01-27T03:31:54.852Z,1.70
2019-01-27T03:33:31.099Z,1.70
2019-01-27T03:35:08.688Z,1.70
2019-01-27T03:36:45.100Z,1.70
2019-01-27T03:38:21.285Z,1.80
2019-01-27T03:39:57.439Z,1.80
2019-01-27T03:41:35.335Z,1.80
2019-01-27T03:43:11.519Z,1.70
2019-01-27T03:44:47.795Z,1.70
2019-01-27T03:46:23.934Z,1.70
2019-01-27T03:48:00.127Z,1.70
2019-01-27T03:49:36.415Z,1.70
2019-01-27T03:51:12.701Z,1.70
2019-01-27T03:52:48.949Z,1.70
2019-01-27T03:54:25.094Z,1.80
2019-01-27T03:56:01.106Z,1.80
2019-01-27T03:57:37.402Z,1.80
2019-01-27T03:59:13.628Z,1.90
2019-01-27T04:00:49.960Z,1.80
2019-01-27T04:02:26.237Z,1.80
2019-01-27T04:04:02.700Z,1.80
2019-01-27T04:05:38.906Z,1.80
2019-01-27T04:07:15.111Z,1.70
2019-01-27T04:08:51.381Z,1.70
2019-01-27T04:10:28.635Z,1.80
2019-01-27T04:12:05.091Z,1.80
2019-01-27T04:13:41.275Z,1.80
2019-01-27T04:15:17.558Z,1.90
2019-01-27T04:16:53.718Z,1.90
2019-01-27T04:18:30.081Z,1.90
2019-01-27T04:20:08.785Z,1.90
2019-01-27T04:21:45.008Z,1.90
2019-01-27T04:23:21.447Z,1.80
2019-01-27T04:24:57.679Z,1.80
2019-01-27T04:26:33.732Z,1.80
2019-01-27T04:28:11.470Z,1.80
2019-01-27T04:29:47.725Z,1.80
2019-01-27T04:31:23.890Z,1.90
2019-01-27T04:33:00.215Z,1.90
2019-01-27T04:34:36.536Z,1.90
2019-01-27T04:36:12.893Z,1.90
2019-01-27T04:37:49.131Z,1.90
2019-01-27T04:39:25.355Z,1.90
2019-01-27T04:41:01.478Z,1.90
2019-01-27T04:42:37.541Z,1.90
2019-01-27T04:44:13.796Z,1.90
2019-01-27T04:45:50.030Z,1.80
2019-01-27T04:47:26.226Z,1.80
2019-01-27T04:49:02.328Z,1.80
2019-01-27T04:50:38.762Z,1.80
2019-01-27T04:52:14.887Z,1.80
2019-01-27T04:53:51.157Z,1.80
2019-01-27T04:55:27.497Z,1.80
2019-01-27T04:57:03.928Z,1.80
2019-01-27T04:58:40.033Z,1.80
2019-01-27T05:00:21.528Z,1.80
2019-01-27T05:01:57.684Z,1.80
2019-01-27T05:03:48.182Z,1.80
2019-01-27T05:05:24.529Z,1.70
2019-01-27T05:07:00.745Z,1.80
2019-01-27T05:08:36.896Z,1.70
2019-01-27T05:10:13.279Z,1.80
2019-01-27T05:11:49.445Z,1.80
2019-01-27T05:13:25.674Z,1.80
2019-01-27T05:15:01.851Z,1.70
2019-01-27T05:16:37.928Z,1.70
2019-01-27T05:18:14.085Z,1.70
2019-01-27T05:19:50.522Z,1.70
2019-01-27T05:21:26.748Z,1.70
2019-01-27T05:23:03.064Z,1.80
2019-01-27T05:24:39.235Z,1.70
2019-01-27T05:26:15.421Z,1.80
2019-01-27T05:27:51.616Z,1.80
2019-01-27T05:29:27.965Z,1.80
2019-01-27T05:31:04.138Z,1.80
2019-01-27T05:32:40.268Z,1.80
2019-01-27T05:34:16.440Z,1.80
2019-01-27T05:35:52.701Z,1.90
2019-01-27T05:37:28.920Z,1.90
2019-01-27T05:39:07.874Z,1.90
2019-01-27T05:40:44.098Z,1.90
2019-01-27T05:42:20.205Z,2.00
2019-01-27T05:43:56.278Z,2.00
2019-01-27T05:45:32.443Z,2.00
2019-01-27T05:47:08.549Z,2.00
2019-01-27T05:48:44.688Z,2.10
2019-01-27T05:50:21.293Z,2.10
2019-01-27T05:51:57.669Z,2.10
2019-01-27T05:53:33.822Z,2.10
2019-01-27T05:55:11.512Z,2.20
2019-01-27T05:56:47.694Z,2.20
2019-01-27T05:58:23.899Z,2.30
2019-01-27T06:00:00.050Z,2.30
2019-01-27T06:01:36.384Z,2.40
2019-01-27T06:03:12.693Z,2.40
2019-01-27T06:04:49.218Z,2.40
2019-01-27T06:06:25.527Z,2.50
2019-01-27T06:08:01.806Z,2.50
2019-01-27T06:09:38.100Z,2.50
2019-01-27T06:11:14.285Z,2.60
2019-01-27T06:12:50.442Z,2.60
2019-01-27T06:14:28.002Z,2.50
2019-01-27T06:16:04.341Z,2.60
2019-01-27T06:17:40.636Z,2.60
2019-01-27T06:19:16.843Z,2.60
2019-01-27T06:20:52.997Z,2.60
2019-01-27T06:22:29.075Z,2.60
2019-01-27T06:24:05.473Z,2.60
2019-01-27T06:25:41.625Z,2.60
2019-01-27T06:27:17.883Z,2.60
2019-01-27T06:28:54.087Z,2.60
2019-01-27T06:30:30.316Z,2.70
2019-01-27T06:32:06.480Z,2.70
2019-01-27T06:33:56.288Z,2.70
2019-01-27T06:35:32.449Z,2.70
2019-01-27T06:37:08.514Z,2.70
2019-01-27T06:38:44.790Z,2.70
2019-01-27T06:40:21.324Z,2.70
2019-01-27T06:41:57.470Z,2.70
2019-01-27T06:43:33.619Z,2.80
2019-01-27T06:45:10.022Z,2.80
2019-01-27T06:46:54.286Z,2.80
2019-01-27T06:48:31.356Z,2.80
2019-01-27T06:50:08.698Z,2.80
2019-01-27T06:51:44.853Z,2.70
2019-01-27T06:53:21.065Z,2.80
2019-01-27T06:54:57.304Z,2.70
2019-01-27T06:56:33.423Z,2.70
2019-01-27T06:58:10.044Z,2.70
2019-01-27T06:59:53.688Z,2.70
2019-01-27T07:01:41.603Z,2.70
2019-01-27T07:03:26.989Z,2.70
2019-01-27T07:05:09.799Z,2.70
2019-01-27T07:07:08.561Z,2.70
2019-01-27T07:09:02.935Z,2.70
2019-01-27T07:11:02.395Z,2.70
2019-01-27T07:13:03.678Z,2.80
2019-01-27T07:14:57.650Z,2.80
2019-01-27T07:16:47.870Z,2.80
2019-01-27T07:18:33.660Z,2.90
2019-01-27T07:20:29.398Z,2.90
2019-01-27T07:22:23.440Z,2.90
2019-01-27T07:24:33.896Z,2.90
2019-01-27T07:26:38.111Z,2.80
2019-01-27T07:28:31.013Z,2.80
2019-01-27T07:30:33.798Z,2.80
2019-01-27T07:32:40.030Z,2.70
2019-01-27T07:34:51.193Z,2.70
2019-01-27T07:36:40.199Z,2.70
2019-01-27T07:38:38.246Z,2.70
2019-01-27T07:40:20.462Z,2.70
2019-01-27T07:42:21.850Z,2.70
2019-01-27T07:44:19.854Z,2.70
2019-01-27T07:46:17.698Z,2.70
2019-01-27T07:48:03.477Z,2.70
2019-01-27T07:49:58.002Z,2.70
2019-01-27T07:51:53.026Z,2.70
2019-01-27T07:53:45.781Z,2.70
2019-01-27T07:55:30.316Z,2.70
2019-01-27T07:57:25.712Z,2.70
2019-01-27T07:59:11.117Z,2.70
2019-01-27T08:01:18.554Z,2.70
2019-01-27T08:03:03.539Z,2.70
2019-01-27T08:04:49.704Z,2.70
2019-01-27T08:06:31.409Z,2.70
2019-01-27T08:08:29.522Z,2.70
2019-01-27T08:10:26.654Z,2.70
2019-01-27T08:12:29.391Z,2.60
2019-01-27T08:14:14.724Z,2.60
2019-01-27T08:16:01.893Z,2.60
2019-01-27T08:17:51.561Z,2.50
2019-01-27T08:19:37.566Z,2.50
2019-01-27T08:21:24.433Z,2.50
2019-01-27T08:23:25.618Z,2.50
2019-01-27T08:25:13.027Z,2.50
2019-01-27T08:27:08.277Z,2.50
2019-01-27T08:29:06.336Z,2.50
2019-01-27T08:30:55.256Z,2.50
2019-01-27T08:32:53.440Z,2.60
2019-01-27T08:34:51.458Z,2.70
2019-01-27T08:36:54.007Z,2.80
2019-01-27T08:38:39.528Z,2.90
2019-01-27T08:40:24.835Z,3.10
2019-01-27T08:42:15.878Z,3.30
2019-01-27T08:44:11.246Z,3.50
2019-01-27T08:45:58.276Z,3.70
2019-01-27T08:47:35.676Z,3.90
2019-01-27T08:49:12.676Z,4.10
2019-01-27T08:50:48.857Z,4.10
2019-01-27T08:52:24.978Z,4.10
2019-01-27T08:54:01.336Z,4.20
2019-01-27T08:55:37.529Z,4.30
2019-01-27T08:57:13.662Z,4.40
2019-01-27T08:58:50.889Z,4.50
2019-01-27T09:00:33.789Z,4.50
2019-01-27T09:02:25.590Z,4.60
2019-01-27T09:04:10.962Z,4.60
2019-01-27T09:06:08.625Z,4.60
2019-01-27T09:08:10.071Z,4.50
2019-01-27T09:10:04.159Z,4.50
2019-01-27T09:12:06.185Z,4.50
2019-01-27T09:13:48.549Z,4.50
2019-01-27T09:15:43.835Z,4.50
2019-01-27T09:17:37.732Z,4.50
2019-01-27T09:19:41.873Z,4.60
2019-01-27T09:21:31.141Z,4.60
2019-01-27T09:23:20.980Z,4.70
2019-01-27T09:25:19.585Z,4.80
2019-01-27T09:27:14.778Z,4.80
2019-01-27T09:29:16.007Z,4.90
2019-01-27T09:31:00.792Z,5.00
2019-01-27T09:32:56.034Z,5.10
2019-01-27T09:35:06.494Z,5.10
2019-01-27T09:37:07.438Z,5.20
2019-01-27T09:38:49.889Z,5.20
2019-01-27T09:40:33.395Z,5.20
2019-01-27T09:42:27.523Z,5.20
2019-01-27T09:44:21.573Z,5.10
2019-01-27T09:46:09.304Z,5.10
2019-01-27T09:47:52.435Z,5.20
2019-01-27T09:49:46.129Z,5.20
2019-01-27T09:51:27.915Z,5.20
2019-01-27T09:53:32.554Z,5.30
2019-01-27T09:55:15.347Z,5.30
2019-01-27T09:57:03.583Z,5.50
2019-01-27T09:58:55.284Z,5.60
2019-01-27T10:00:39.686Z,5.70
2019-01-27T10:02:37.830Z,5.80
2019-01-27T10:04:22.606Z,5.90
2019-01-27T10:06:10.519Z,5.90
2019-01-27T10:08:03.492Z,5.90
2019-01-27T10:09:59.119Z,6.00
2019-01-27T10:11:50.258Z,6.00
2019-01-27T10:13:48.488Z,6.00
2019-01-27T10:16:00.821Z,6.00
2019-01-27T10:17:45.501Z,5.90
2019-01-27T10:19:42.272Z,6.00
2019-01-27T10:21:49.877Z,6.10
2019-01-27T10:23:48.109Z,6.20
2019-01-27T10:25:54.961Z,6.30
2019-01-27T10:27:57.867Z,6.50
2019-01-27T10:29:56.280Z,6.70
2019-01-27T10:31:50.354Z,6.90
2019-01-27T10:33:45.517Z,7.00
2019-01-27T10:35:48.121Z,7.20
2019-01-27T10:37:46.230Z,7.30
2019-01-27T10:39:41.606Z,7.40
2019-01-27T10:41:27.442Z,7.50
2019-01-27T10:43:09.249Z,7.60
2019-01-27T10:45:10.601Z,7.60
2019-01-27T10:47:24.093Z,7.80
2019-01-27T10:49:19.309Z,8.00
2019-01-27T10:51:13.387Z,8.10
2019-01-27T10:53:04.996Z,8.00
2019-01-27T10:55:00.464Z,8.00
2019-01-27T10:56:47.970Z,8.10
2019-01-27T10:58:32.797Z,8.00
2019-01-27T11:00:23.583Z,8.10
2019-01-27T11:02:39.797Z,8.00
2019-01-27T11:04:33.997Z,8.00
2019-01-27T11:06:27.762Z,8.00
2019-01-27T11:08:20.052Z,8.10
2019-01-27T11:10:14.322Z,8.10
2019-01-27T11:12:15.230Z,8.10
2019-01-27T11:14:08.515Z,8.30
2019-01-27T11:16:02.374Z,8.40
2019-01-27T11:17:43.331Z,8.40
2019-01-27T11:19:44.600Z,8.50
2019-01-27T11:21:49.055Z,8.50
2019-01-27T11:23:43.240Z,8.50
2019-01-27T11:25:28.872Z,8.40
2019-01-27T11:27:17.348Z,8.50
2019-01-27T11:29:18.630Z,8.50
2019-01-27T11:31:16.806Z,8.50
2019-01-27T11:33:12.005Z,8.60
2019-01-27T11:35:22.325Z,8.60
2019-01-27T11:37:32.674Z,8.60
2019-01-27T11:39:22.184Z,8.50
2019-01-27T11:41:23.431Z,8.50
2019-01-27T11:43:17.374Z,8.50
2019-01-27T11:45:12.633Z,8.60
2019-01-27T11:47:06.178Z,8.50
2019-01-27T11:48:48.573Z,8.50
2019-01-27T11:50:43.861Z,8.50
2019-01-27T11:52:24.263Z,8.50
2019-01-27T11:54:00.539Z,8.40
2019-01-27T11:55:36.946Z,8.40
2019-01-27T11:57:13.225Z,8.30
2019-01-27T11:58:49.515Z,8.40
2019-01-27T12:00:34.679Z,8.40
2019-01-27T12:02:10.907Z,8.20
2019-01-27T12:03:47.092Z,8.30
2019-01-27T12:05:23.282Z,8.30
2019-01-27T12:06:59.543Z,8.30
2019-01-27T12:08:35.771Z,8.30
2019-01-27T12:10:14.316Z,8.40
2019-01-27T12:11:53.065Z,8.30
2019-01-27T12:13:29.424Z,8.30
2019-01-27T12:15:06.607Z,8.30
2019-01-27T12:16:42.814Z,8.30
2019-01-27T12:18:19.080Z,8.30
2019-01-27T12:19:55.159Z,8.30
2019-01-27T12:21:31.315Z,8.40
2019-01-27T12:23:07.586Z,8.40
2019-01-27T12:24:43.934Z,8.40
2019-01-27T12:26:20.302Z,8.40
2019-01-27T12:27:56.466Z,8.50
2019-01-27T12:29:32.681Z,8.50
2019-01-27T12:31:08.962Z,8.50
2019-01-27T12:32:45.148Z,8.50
2019-01-27T12:34:21.533Z,8.50
2019-01-27T12:35:57.733Z,8.50
2019-01-27T12:37:34.082Z,8.50
2019-01-27T12:39:10.794Z,8.40
2019-01-27T12:40:47.010Z,8.40
2019-01-27T12:42:23.362Z,8.40
2019-01-27T12:43:59.534Z,8.40
2019-01-27T12:45:35.801Z,8.40
2019-01-27T12:47:13.005Z,8.30
2019-01-27T12:48:49.149Z,8.20
2019-01-27T12:50:25.333Z,8.20
2019-01-27T12:52:01.523Z,8.10
2019-01-27T12:53:37.710Z,8.00
2019-01-27T12:55:14.388Z,8.10
2019-01-27T12:56:50.607Z,8.10
2019-01-27T12:58:28.447Z,8.20
2019-01-27T13:00:10.717Z,8.20
2019-01-27T13:01:46.898Z,8.20
2019-01-27T13:03:23.234Z,8.20
2019-01-27T13:04:59.477Z,8.30
2019-01-27T13:06:35.684Z,8.30
2019-01-27T13:08:11.752Z,8.30
2019-01-27T13:09:48.265Z,8.30
2019-01-27T13:11:24.580Z,8.30
2019-01-27T13:13:00.887Z,8.40
2019-01-27T13:14:36.954Z,8.40
2019-01-27T13:16:13.160Z,8.50
2019-01-27T13:17:49.389Z,8.50
2019-01-27T13:19:25.506Z,8.50
2019-01-27T13:21:01.810Z,8.40
2019-01-27T13:22:38.870Z,8.40
2019-01-27T13:24:15.021Z,8.30
2019-01-27T13:25:51.509Z,8.30
2019-01-27T13:27:27.705Z,8.20
2019-01-27T13:29:03.987Z,8.20
2019-01-27T13:30:40.364Z,8.10
2019-01-27T13:32:16.481Z,8.10
2019-01-27T13:33:52.711Z,8.20
2019-01-27T13:35:29.091Z,8.20
2019-01-27T13:37:05.660Z,8.30
2019-01-27T13:38:41.957Z,8.40
2019-01-27T13:40:20.197Z,8.50
2019-01-27T13:41:56.310Z,8.50
2019-01-27T13:43:32.940Z,8.60
2019-01-27T13:45:11.366Z,8.60
2019-01-27T13:46:47.665Z,8.60
2019-01-27T13:48:24.794Z,8.60
2019-01-27T13:50:00.861Z,8.60
2019-01-27T13:51:37.108Z,8.70
2019-01-27T13:53:13.393Z,8.70
2019-01-27T13:54:49.539Z,8.60
2019-01-27T13:56:25.783Z,8.60
2019-01-27T13:58:02.157Z,8.60
2019-01-27T13:59:38.377Z,8.50
2019-01-27T14:01:14.571Z,8.50
2019-01-27T14:02:50.854Z,8.50
2019-01-27T14:04:26.998Z,8.50
2019-01-27T14:06:03.241Z,8.50
2019-01-27T14:07:39.436Z,8.50
2019-01-27T14:09:15.692Z,8.60
2019-01-27T14:10:51.858Z,8.60
2019-01-27T14:12:28.067Z,8.60
2019-01-27T14:14:04.707Z,8.60
2019-01-27T14:15:41.114Z,8.60
2019-01-27T14:17:17.378Z,8.60
2019-01-27T14:18:53.554Z,8.60
2019-01-27T14:20:30.041Z,8.50
2019-01-27T14:22:06.492Z,8.40
2019-01-27T14:23:42.809Z,8.40
2019-01-27T14:25:20.248Z,8.40
2019-01-27T14:26:56.454Z,8.30
2019-01-27T14:28:32.701Z,8.20
2019-01-27T14:30:12.078Z,8.10
2019-01-27T14:31:48.150Z,8.10
2019-01-27T14:33:24.330Z,8.00
2019-01-27T14:35:00.528Z,7.90
2019-01-27T14:36:36.604Z,7.80
2019-01-27T14:38:12.807Z,7.70
2019-01-27T14:39:49.372Z,7.70
2019-01-27T14:41:25.625Z,7.60
2019-01-27T14:43:01.790Z,7.50
2019-01-27T14:44:37.965Z,7.50
2019-01-27T14:46:14.106Z,7.40
2019-01-27T14:47:50.332Z,7.30
2019-01-27T14:49:26.557Z,7.30
2019-01-27T14:51:02.745Z,7.20
2019-01-27T14:52:38.961Z,7.10
2019-01-27T14:54:15.284Z,7.10
2019-01-27T14:55:51.431Z,7.00
2019-01-27T14:57:27.712Z,7.00
2019-01-27T14:59:04.113Z,6.90
2019-01-27T15:00:41.994Z,6.90
2019-01-27T15:02:18.228Z,6.80
2019-01-27T15:03:54.412Z,6.80
2019-01-27T15:05:30.800Z,6.80
2019-01-27T15:07:07.054Z,6.70
2019-01-27T15:08:45.892Z,6.70
2019-01-27T15:10:21.521Z,6.70
2019-01-27T15:11:57.645Z,6.70
2019-01-27T15:13:33.991Z,6.60
2019-01-27T15:15:16.658Z,6.60
2019-01-27T15:16:53.652Z,6.60
2019-01-27T15:18:29.951Z,6.60
2019-01-27T15:20:09.910Z,6.60
2019-01-27T15:21:46.813Z,6.60
2019-01-27T15:23:29.421Z,6.60
2019-01-27T15:25:06.784Z,6.60
2019-01-27T15:26:43.095Z,6.60
2019-01-27T15:28:19.783Z,6.60
2019-01-27T15:30:00.929Z,6.60
2019-01-27T15:31:44.977Z,6.60
2019-01-27T15:33:21.589Z,6.60
2019-01-27T15:34:57.992Z,6.60
2019-01-27T15:36:34.350Z,6.50
2019-01-27T15:38:10.809Z,6.50
2019-01-27T15:39:47.183Z,6.50
2019-01-27T15:41:23.665Z,6.50
2019-01-27T15:42:59.856Z,6.50
2019-01-27T15:44:37.324Z,6.50
2019-01-27T15:46:13.665Z,6.50
2019-01-27T15:47:49.854Z,6.40
2019-01-27T15:49:27.092Z,6.40
2019-01-27T15:51:03.388Z,6.30
2019-01-27T15:52:39.606Z,6.30
2019-01-27T15:54:15.919Z,6.30
2019-01-27T15:55:52.134Z,6.30
2019-01-27T15:57:29.342Z,6.20
2019-01-27T15:59:05.865Z,6.20
2019-01-27T16:00:42.323Z,6.20
2019-01-27T16:02:18.457Z,6.20
2019-01-27T16:03:54.638Z,6.10
2019-01-27T16:05:31.326Z,6.10
2019-01-27T16:07:07.734Z,6.10
2019-01-27T16:08:45.011Z,6.00
2019-01-27T16:10:23.309Z,6.00
2019-01-27T16:11:59.825Z,6.00
2019-01-27T16:13:37.073Z,6.00
2019-01-27T16:15:15.926Z,6.00
2019-01-27T16:16:52.128Z,6.00
2019-01-27T16:18:28.705Z,5.90
2019-01-27T16:20:06.231Z,5.90
2019-01-27T16:21:42.513Z,5.90
2019-01-27T16:23:40.737Z,5.80
2019-01-27T16:25:20.630Z,5.80
2019-01-27T16:26:58.617Z,5.80
2019-01-27T16:28:35.847Z,5.90
2019-01-27T16:30:32.138Z,5.90
2019-01-27T16:32:16.635Z,5.90
2019-01-27T16:34:11.057Z,5.90
2019-01-27T16:35:47.421Z,5.90
2019-01-27T16:37:23.747Z,5.90
2019-01-27T16:39:00.619Z,5.90
2019-01-27T16:40:39.789Z,5.90
2019-01-27T16:42:16.138Z,5.80
2019-01-27T16:43:53.103Z,5.80
2019-01-27T16:45:29.349Z,5.80
2019-01-27T16:47:05.578Z,5.80
2019-01-27T16:48:43.298Z,5.80
2019-01-27T16:50:22.590Z,5.80
2019-01-27T16:51:58.906Z,5.90
2019-01-27T16:53:35.358Z,5.90
2019-01-27T16:55:13.813Z,5.90
2019-01-27T16:56:49.993Z,5.90
2019-01-27T16:58:26.304Z,5.90
2019-01-27T17:00:02.506Z,5.90
2019-01-27T17:01:40.698Z,6.00
2019-01-27T17:03:17.001Z,6.00
2019-01-27T17:04:53.294Z,6.00
2019-01-27T17:06:29.742Z,6.00
2019-01-27T17:08:06.365Z,6.00
2019-01-27T17:09:42.833Z,6.00
2019-01-27T17:11:19.371Z,5.90
2019-01-27T17:12:55.670Z,5.90
2019-01-27T17:14:31.938Z,5.80
2019-01-27T17:16:10.168Z,5.90
2019-01-27T17:17:46.861Z,5.80
2019-01-27T17:19:23.228Z,5.80
2019-01-27T17:21:01.218Z,5.80
2019-01-27T17:22:37.661Z,5.70
2019-01-27T17:24:13.885Z,5.70
2019-01-27T17:25:53.635Z,5.70
2019-01-27T17:27:27.948Z,5.70
2019-01-27T17:29:04.405Z,5.70
2019-01-27T17:30:41.623Z,5.70
2019-01-27T17:32:18.086Z,5.70
2019-01-27T17:33:54.503Z,5.70
2019-01-27T17:35:30.742Z,5.80
2019-01-27T17:37:07.474Z,5.80
2019-01-27T17:38:43.714Z,5.80
2019-01-27T17:40:19.940Z,5.80
2019-01-27T17:41:56.160Z,5.70
2019-01-27T17:43:33.379Z,5.70
2019-01-27T17:45:12.506Z,5.70
2019-01-27T17:46:48.676Z,5.70
2019-01-27T17:48:24.945Z,5.70
2019-01-27T17:50:01.347Z,5.80
2019-01-27T17:51:38.935Z,5.80
2019-01-27T17:53:15.127Z,5.80
2019-01-27T17:54:52.641Z,5.90
2019-01-27T17:56:29.038Z,5.90
2019-01-27T17:58:33.374Z,5.90
2019-01-27T18:00:29.041Z,6.00
2019-01-27T18:02:24.421Z,6.00
2019-01-27T18:04:32.846Z,6.00
2019-01-27T18:06:36.809Z,6.00
2019-01-27T18:08:22.709Z,6.00
2019-01-27T18:10:18.054Z,6.00
2019-01-27T18:12:00.415Z,6.00
2019-01-27T18:13:58.457Z,6.00
2019-01-27T18:15:34.826Z,5.90
2019-01-27T18:17:10.985Z,5.90
2019-01-27T18:18:49.275Z,5.90
2019-01-27T18:20:26.158Z,5.80
2019-01-27T18:22:02.532Z,5.80
2019-01-27T18:23:39.387Z,5.80
2019-01-27T18:25:18.932Z,5.80
2019-01-27T18:26:55.246Z,5.70
2019-01-27T18:28:34.606Z,5.70
2019-01-27T18:30:18.516Z,5.70
2019-01-27T18:31:56.253Z,5.70
2019-01-27T18:33:33.458Z,5.70
2019-01-27T18:35:09.902Z,5.60
2019-01-27T18:36:46.705Z,5.60
2019-01-27T18:38:26.994Z,5.60
2019-01-27T18:40:09.067Z,5.60
2019-01-27T18:42:06.156Z,5.60
2019-01-27T18:43:42.985Z,5.60
2019-01-27T18:45:19.695Z,5.50
2019-01-27T18:46:56.139Z,5.50
2019-01-27T18:48:32.493Z,5.50
2019-01-27T18:50:11.678Z,5.40
2019-01-27T18:51:48.148Z,5.40
2019-01-27T18:53:46.601Z,5.40
2019-01-27T18:55:37.219Z,5.40
2019-01-27T18:57:44.600Z,5.40
2019-01-27T18:59:40.035Z,5.40
2019-01-27T19:01:34.299Z,5.40
2019-01-27T19:03:24.065Z,5.30
2019-01-27T19:05:22.603Z,5.30
2019-01-27T19:07:12.606Z,5.30
2019-01-27T19:09:05.752Z,5.30
2019-01-27T19:10:52.076Z,5.20
2019-01-27T19:12:53.270Z,5.20
2019-01-27T19:14:54.710Z,5.20
2019-01-27T19:16:52.925Z,5.20
2019-01-27T19:18:54.242Z,5.20
2019-01-27T19:20:52.634Z,5.20
2019-01-27T19:22:56.070Z,5.10
2019-01-27T19:24:53.981Z,5.10
2019-01-27T19:26:48.744Z,5.10
2019-01-27T19:28:42.223Z,5.10
2019-01-27T19:30:38.241Z,5.10
2019-01-27T19:32:48.833Z,5.10
2019-01-27T19:34:47.995Z,5.10
2019-01-27T19:36:40.598Z,5.00
2019-01-27T19:38:29.193Z,5.00
2019-01-27T19:40:28.930Z,5.00
2019-01-27T19:42:39.705Z,5.00
2019-01-27T19:44:31.522Z,4.90
2019-01-27T19:46:14.175Z,4.90
2019-01-27T19:48:08.319Z,4.90
2019-01-27T19:49:57.375Z,4.90
2019-01-27T19:51:58.163Z,4.90
2019-01-27T19:53:58.301Z,4.90
2019-01-27T19:55:52.182Z,4.90
2019-01-27T19:57:39.679Z,4.90
2019-01-27T19:59:37.318Z,4.90
2019-01-27T20:01:23.146Z,4.90
2019-01-27T20:03:17.515Z,4.90
2019-01-27T20:05:15.755Z,4.90
2019-01-27T20:07:09.818Z,4.90
2019-01-27T20:09:03.425Z,4.90
2019-01-27T20:11:08.981Z,4.90
2019-01-27T20:13:19.498Z,4.90
2019-01-27T20:15:07.889Z,5.00
2019-01-27T20:16:57.874Z,5.00
2019-01-27T20:18:52.027Z,5.00
2019-01-27T20:20:47.372Z,5.00
2019-01-27T20:22:33.136Z,5.00
2019-01-27T20:24:28.552Z,5.00
2019-01-27T20:26:11.212Z,4.90
2019-01-27T20:27:56.258Z,4.90
2019-01-27T20:29:56.952Z,4.90
2019-01-27T20:31:51.148Z,4.90
2019-01-27T20:34:01.353Z,4.90
2019-01-27T20:35:51.796Z,4.90
2019-01-27T20:37:43.168Z,4.80
2019-01-27T20:39:41.150Z,4.80
2019-01-27T20:41:34.264Z,4.90
2019-01-27T20:43:25.195Z,4.80
2019-01-27T20:45:10.009Z,4.90
2019-01-27T20:47:03.888Z,4.90
2019-01-27T20:48:49.114Z,4.90
2019-01-27T20:50:38.541Z,4.80
2019-01-27T20:52:29.823Z,4.80
2019-01-27T20:54:34.034Z,4.70
2019-01-27T20:56:40.716Z,4.50
2019-01-27T20:58:35.966Z,4.40
2019-01-27T21:00:46.585Z,4.30
2019-01-27T21:02:45.573Z,4.20
2019-01-27T21:04:43.459Z,4.10
2019-01-27T21:06:29.307Z,4.00
2019-01-27T21:08:30.593Z,3.90
2019-01-27T21:10:33.576Z,3.80
2019-01-27T21:12:24.982Z,3.70
2019-01-27T21:14:23.381Z,3.70
2019-01-27T21:16:15.123Z,3.70
2019-01-27T21:18:08.318Z,3.70
2019-01-27T21:19:48.464Z,3.70
2019-01-27T21:21:24.654Z,3.70
2019-01-27T21:23:00.703Z,3.60
2019-01-27T21:24:36.778Z,3.60
2019-01-27T21:26:12.986Z,3.50
2019-01-27T21:27:49.227Z,3.50
2019-01-27T21:29:25.356Z,3.40
2019-01-27T21:31:01.447Z,3.40
2019-01-27T21:32:38.666Z,3.40
2019-01-27T21:34:14.796Z,3.30
2019-01-27T21:35:51.074Z,3.30
2019-01-27T21:37:27.465Z,3.20
2019-01-27T21:39:05.594Z,3.20
2019-01-27T21:40:43.469Z,3.10
2019-01-27T21:42:19.605Z,3.10
2019-01-27T21:43:55.923Z,3.00
2019-01-27T21:45:32.506Z,3.00
2019-01-27T21:47:08.742Z,3.00
2019-01-27T21:48:44.960Z,3.00
2019-01-27T21:50:21.243Z,3.00
2019-01-27T21:51:57.394Z,3.00
2019-01-27T21:53:33.570Z,3.00
2019-01-27T21:55:09.903Z,3.00
2019-01-27T21:56:46.069Z,3.00
2019-01-27T21:58:22.193Z,3.00
2019-01-27T21:59:58.298Z,3.00
2019-01-27T22:01:34.500Z,3.00
2019-01-27T22:03:10.677Z,3.00
2019-01-27T22:04:46.958Z,3.00
2019-01-27T22:06:23.199Z,3.00
2019-01-27T22:07:59.660Z,3.00
2019-01-27T22:09:35.718Z,2.90
2019-01-27T22:11:12.199Z,2.90
2019-01-27T22:12:48.453Z,3.00
2019-01-27T22:14:24.784Z,3.00
2019-01-27T22:16:01.182Z,3.10
2019-01-27T22:17:37.424Z,3.10
2019-01-27T22:19:13.725Z,3.20
2019-01-27T22:20:50.130Z,3.30
2019-01-27T22:22:26.422Z,3.30
2019-01-27T22:24:02.573Z,3.40
2019-01-27T22:25:38.838Z,3.40
2019-01-27T22:27:15.073Z,3.40
2019-01-27T22:28:51.349Z,3.50
2019-01-27T22:30:27.458Z,3.50
2019-01-27T22:32:03.810Z,3.50
2019-01-27T22:33:39.977Z,3.60
2019-01-27T22:35:17.630Z,3.60
2019-01-27T22:36:54.091Z,3.60
2019-01-27T22:38:30.318Z,3.70